Flight Track Log - Related Links

Times and Time Zones

All times are in EDT time to prevent confusion due to time zone crossing. See the N322MS flight status page for this flight to view local times or setup timezone preferences in your user account.

Time Position Orientation Groundspeed Altitude Reporting Facility
EDT Latitude Longitude Course Direction KTS MPH feet Rate Location/Type
Fri 04:06:15 PM 33.6375 -78.9701 224° Southwest  Level FlightAware Approximate
Fri 04:07:15 PM 33.6037 -79.0035 224° Southwest  Level FlightAware Approximate
Fri 04:08:15 PM 33.5699 -79.0369 224° Southwest  Level FlightAware Approximate
Fri 04:09:15 PM 33.5500 -79.0833 224° Southwest  Level FlightAware Approximate
Fri 04:10:15 PM 33.5160 -79.1165 224° Southwest  Level FlightAware Approximate
Fri 04:11:15 PM 33.4981 -79.1611 223° Southwest  Level FlightAware Approximate
Fri 04:12:15 PM 33.4679 -79.1988 223° Southwest  Level FlightAware Approximate
Fri 04:13:15 PM 33.4332 -79.2307 223° Southwest  Level FlightAware Approximate
Fri 04:14:15 PM 33.3985 -79.2626 224° Southwest  Level FlightAware Approximate
Fri 04:15:15 PM 33.3638 -79.2945 224° Southwest  Level FlightAware Approximate
Fri 04:16:15 PM 33.3290 -79.3264 224° Southwest  Level FlightAware Approximate
Fri 04:17:15 PM 33.2923 -79.3550 224° Southwest  Level FlightAware Approximate
Fri 04:18:15 PM 33.2556 -79.3835 224° Southwest  Level FlightAware Approximate
Fri 04:19:15 PM 33.2172 -79.4085 225° Southwest  Level FlightAware Approximate
Fri 04:20:15 PM 33.1787 -79.4335 225° Southwest  Level FlightAware Approximate
Fri 04:21:15 PM 33.1402 -79.4584 225° Southwest  Level FlightAware Approximate
Fri 04:22:15 PM 33.1018 -79.4834 226° Southwest  Level FlightAware Approximate
Fri 04:23:15 PM 33.0633 -79.5083 226° Southwest  Level FlightAware Approximate
Fri 04:24:15 PM 33.0248 -79.5332 226° Southwest  Level FlightAware Approximate
Fri 04:25:15 PM 32.9863 -79.5580 227° Southwest  Level FlightAware Approximate
Fri 04:26:15 PM 32.9478 -79.5829 227° Southwest  Level FlightAware Approximate
Fri 04:27:15 PM 32.9094 -79.6077 228° Southwest  Level FlightAware Approximate
Fri 04:28:15 PM 32.8708 -79.6325 228° Southwest  Level FlightAware Approximate
Fri 04:29:15 PM 32.8324 -79.6573 229° Southwest  Level FlightAware Approximate
Fri 04:30:15 PM 32.7938 -79.6820 229° Southwest  Level FlightAware Approximate
Fri 04:31:15 PM 32.7553 -79.7068 230° Southwest  Level FlightAware Approximate
Fri 04:32:15 PM 32.7156 -79.7287 231° Southwest  Level FlightAware Approximate
Fri 04:33:15 PM 32.6759 -79.7505 231° Southwest  Level FlightAware Approximate
Fri 04:34:15 PM 32.6362 -79.7724 232° Southwest  Level FlightAware Approximate
Fri 04:35:15 PM 32.5965 -79.7942 233° Southwest  Level FlightAware Approximate
Fri 04:36:15 PM 32.5567 -79.8160 234° Southwest  Level FlightAware Approximate
Fri 04:37:15 PM 32.5164 -79.8363 235° Southwest  Level FlightAware Approximate
Fri 04:38:15 PM 32.4762 -79.8566 236° Southwest  Level FlightAware Approximate
Fri 04:39:15 PM 32.4359 -79.8769 237° Southwest  Level FlightAware Approximate
Fri 04:40:15 PM 32.3951 -79.8959 238° Southwest  Level FlightAware Approximate
Fri 04:41:15 PM 32.3544 -79.9149 239° Southwest  Level FlightAware Approximate
Fri 04:42:15 PM 32.3137 -79.9339 241° Southwest  Level FlightAware Approximate
Fri 04:43:15 PM 32.2729 -79.9529 242° Southwest  Level FlightAware Approximate
Fri 04:44:15 PM 32.2320 -79.9712 244° Southwest  Level FlightAware Approximate
Fri 04:45:15 PM 32.1911 -79.9895 246° West  Level FlightAware Approximate
Fri 04:46:15 PM 32.1500 -80.0074 247° West  Level FlightAware Approximate
Fri 04:47:15 PM 32.1087 -80.0246 249° West  Level FlightAware Approximate
Fri 04:48:15 PM 32.0675 -80.0417 251° West  Level FlightAware Approximate
Fri 04:49:15 PM 32.0258 -80.0577 254° West  Level FlightAware Approximate
Fri 04:50:15 PM 31.9841 -80.0735 256° West  Level FlightAware Approximate
Fri 04:51:15 PM 31.9425 -80.0893 259° West  Level FlightAware Approximate
Fri 04:52:15 PM 31.9008 -80.1051 261° West  Level FlightAware Approximate
Fri 04:53:15 PM 31.8591 -80.1209 264° West  Level FlightAware Approximate
Fri 04:54:15 PM 31.8175 -80.1367 267° West  Level FlightAware Approximate
Fri 04:55:15 PM 31.7758 -80.1524 270° West  Level FlightAware Approximate
Fri 04:56:15 PM 31.7358 -80.1675 273° West  Level FlightAware Approximate
Fri 04:57:15 PM 31.6958 -80.1826 276° West  Level FlightAware Approximate
Fri 04:58:15 PM 31.6558 -80.1977 279° West  Level FlightAware Approximate
Fri 04:59:15 PM 31.6158 -80.2128 282° West  Level FlightAware Approximate
Fri 05:00:15 PM 31.5758 -80.2278 285° West  Level FlightAware Approximate
Fri 05:01:15 PM 31.5358 -80.2429 289° West  Level FlightAware Approximate
Fri 05:02:15 PM 31.4958 -80.2579 292° West  Level FlightAware Approximate
Fri 05:03:15 PM 31.4557 -80.2729 295° West  Level FlightAware Approximate
Fri 05:04:15 PM 31.4157 -80.2879 298° West  Level FlightAware Approximate
Fri 05:05:15 PM 31.3757 -80.3029 301° West  Level FlightAware Approximate
Fri 05:06:15 PM 31.3357 -80.3179 304° West  Level FlightAware Approximate
Fri 05:07:15 PM 31.2957 -80.3328 307° West  Level FlightAware Approximate
Fri 05:08:10 PM 31.7692 -81.0719 195° South 166 191 8,000  Level Jacksonville Center
Fri 05:09:10 PM 31.7278 -81.0850 196° South 176 203 8,000  Level Jacksonville Center
Fri 05:10:10 PM 31.6883 -81.0981 194° South 175 201 8,000  Level Jacksonville Center
Fri 05:11:10 PM 31.6425 -81.1111 195° South 169 194 8,000  Level Jacksonville Center
Fri 05:12:09 PM 31.5947 -81.1267 193° South 169 194 8,000  Level Jacksonville Center
Fri 05:13:10 PM 31.5469 -81.1397 197° South 163 188 8,000  Level Jacksonville Center
Fri 05:14:09 PM 31.5033 -81.1553 192° South 163 188 8,000  Level Jacksonville Center
Fri 05:15:10 PM 31.4617 -81.1658 197° South 168 193 8,000  Level Jacksonville Center
Fri 05:16:10 PM 31.4117 -81.1836 194° South 168 193 8,000  Level Jacksonville Center
Fri 05:17:10 PM 31.3661 -81.1967 194° South 163 188 8,000  Level Jacksonville Center
Fri 05:18:10 PM 31.3222 -81.2097 195° South 163 188 8,000  Level Jacksonville Center
Fri 05:19:10 PM 31.2808 -81.2225 178° South 163 188 8,000  Level Jacksonville Center
Fri 05:20:10 PM 31.2347 -81.2208 176° South 169 194 8,000  Level Jacksonville Center
Fri 05:21:10 PM 31.1825 -81.2169 179° South 169 194 8,000  Level Jacksonville Center
Fri 05:22:10 PM 31.1367 -81.2156 176° South 174 200 8,000  Level Jacksonville Center
Fri 05:23:10 PM 31.0886 -81.2114 178° South 174 200 8,000  Level Jacksonville Center
Fri 05:24:10 PM 31.0383 -81.2097 176° South 183 211 8,000  Level Jacksonville Center
Fri 05:25:10 PM 30.9903 -81.2058 179° South 176 203 8,000  Level Jacksonville Center
Fri 05:26:10 PM 30.9422 -81.2044 176° South 176 203 8,000  Level Jacksonville Center
Fri 05:27:10 PM 30.8961 -81.2003 178° South 176 203 8,000  Level Jacksonville Center
Fri 05:28:10 PM 30.8503 -81.1986 176° South 176 203 8,000  Level Jacksonville Center
Fri 05:29:10 PM 30.8003 -81.1947 181° South 176 203 8,000  Level Jacksonville Center
Fri 05:30:07 PM 30.7606 -81.1956 176° South 170 196 8,000  Level Jacksonville Center
Fri 05:31:08 PM 30.7125 -81.1914 179° South 168 193 8,000  Level Jacksonville Center
Fri 05:32:09 PM 30.6644 -81.1900 176° South 169 194 8,000  Level Jacksonville Center
Fri 05:33:10 PM 30.6142 -81.1861 178° South 176 203 8,000  Level Jacksonville Center
Fri 05:34:10 PM 30.5642 -81.1844 176° South 176 203 8,000  Level Jacksonville Center
Fri 05:35:10 PM 30.5181 -81.1806 176° South 176 203 8,000  Level Jacksonville Center
Fri 05:36:10 PM 30.4700 -81.1764 179° South 176 203 8,000  Level Jacksonville Center
Fri 05:37:10 PM 30.4242 -81.1750 178° South 176 203 8,000  Level Jacksonville Center
Fri 05:38:10 PM 30.3739 -81.1733 179° South 176 203 8,000  Level Jacksonville Center
Fri 05:39:09 PM 30.3258 -81.1719 175° South 176 203 8,000  Level Jacksonville Center
Fri 05:40:27 PM 30.2672 -81.1658 178° South 173 199 8,000  Level Jacksonville Center
Fri 05:41:23 PM 30.2236 -81.1642 179° South 171 197 8,000  Level Jacksonville Center
Fri 05:42:29 PM 30.1692 -81.1628 178° South 172 198 8,000  Level Jacksonville Center
Fri 05:43:30 PM 30.1211 -81.1611 176° South 171 197 8,000  Level Jacksonville Center
Fri 05:44:25 PM 30.0772 -81.1572 179° South 170 196 8,000  Level Jacksonville Center
Fri 05:45:38 PM 30.0189 -81.1558 176° South 171 197 8,000  Level Jacksonville Center
Fri 05:46:08 PM 29.9958 -81.1539 177° South 170 196 8,000  Level Jacksonville Center
Fri 05:47:27 PM 29.9331 -81.1500 177° South 172 198 8,000  Level Jacksonville Center
Fri 05:48:28 PM 29.8808 -81.1464 178° South 173 199 8,000  Level Jacksonville Center
Fri 05:49:29 PM 29.8328 -81.1447 176° South 174 200 8,000  Level Jacksonville Center
Fri 05:50:30 PM 29.7847 -81.1408 191° South 173 199 8,000  Level Jacksonville Center
Fri 05:51:30 PM 29.7369 -81.1514 189° South 174 200 8,000  Level Jacksonville Center
Fri 05:52:37 PM 29.6828 -81.1617 191° South 173 199 8,000  Level Jacksonville Center
Fri 05:53:38 PM 29.6369 -81.1722 188° South 173 199 8,000  Level Jacksonville Center
Fri 05:54:39 PM 29.5892 -81.1803 191° South 171 197 8,000 -98 Level Jacksonville Center
Fri 05:55:40 PM 29.5411 -81.1906 190° South 173 199 7,800 -492 Descending Jacksonville Center
Fri 05:56:41 PM 29.4911 -81.2008 189° South 188 216 7,000 -738 Descending Jacksonville Center
Fri 05:57:42 PM 29.4328 -81.2114 190° South 188 216 6,300 -492 Descending Jacksonville Center
Fri 05:58:43 PM 29.3831 -81.2219 192° South 182 209 6,000 -148 Descending Jacksonville Center
Fri 05:59:44 PM 29.3392 -81.2322 201° Southwest 170 196 6,000 -149 Level Jacksonville Center
Fri 06:00:44 PM 29.2936 -81.2519 205° Southwest 179 206 5,700 -545 Descending Jacksonville Center
Fri 06:01:45 PM 29.2439 -81.2789 206° Southwest 189 217 4,900 -738 Descending Jacksonville Center
Fri 06:02:46 PM 29.1961 -81.3061 203° Southwest 188 216 4,200 -443 Descending Jacksonville Center
Fri 06:03:47 PM 29.1506 -81.3281 196° South 179 206 4,000 -79 Descending Jacksonville Center
Fri 06:05:18 PM 29.0833 -81.3500 196° South 170 196 4,000  Level Orlando TRACON
Fri 06:06:23 PM 29.0333 -81.3667 180° South 169 194 4,000  Level Orlando TRACON
Fri 06:07:24 PM 28.9833 -81.3667 204° Southwest 175 201 4,000  Level Orlando TRACON
Fri 06:08:24 PM 28.9500 -81.3833 210° Southwest 169 194 4,000  Level Orlando TRACON
Fri 06:09:24 PM 28.9000 -81.4167 221° Southwest 170 196 4,000 -350 Level Orlando TRACON
Fri 06:10:24 PM 28.8667 -81.4500 210° Southwest 185 213 3,300 -500 Descending Orlando TRACON
Fri 06:11:24 PM 28.8167 -81.4833 221° Southwest 187 215 3,000 -150 Descending Orlando TRACON
Fri 06:12:24 PM 28.7833 -81.5167 221° Southwest 174 200 3,000  Level Orlando TRACON
Fri 06:13:19 PM 28.7500 -81.5500 180° South 169 194 3,000  Level Orlando TRACON
Fri 06:14:19 PM 28.7000 -81.5500 180° South 164 189 3,000  Level Orlando TRACON
Fri 06:15:25 PM 28.6500 -81.5500 180° South 167 192 3,000 -238 Level Orlando TRACON
Fri 06:16:25 PM 28.6000 -81.5500 164° South 179 206 2,500 -500 Descending Orlando TRACON
Fri 06:17:25 PM 28.5500 -81.5333 180° South 182 209 2,000 -248 Descending Orlando TRACON
Fri 06:18:26 PM 28.5167 -81.5333 180° South 162 186 2,000  Level Orlando TRACON
Fri 06:19:32 PM 28.4500 -81.5333 180° South 163 188 2,000  Level Orlando TRACON
Fri 06:20:26 PM 28.4167 -81.5333 139° Southeast 146 168 2,000  Level Orlando TRACON
Fri 06:21:32 PM 28.3833 -81.5000 156° South 124 143 2,000 -300 Level Orlando TRACON
Fri 06:22:26 PM 28.3500 -81.4833 139° Southeast 142 163 1,400 -632 Descending Orlando TRACON
Fri 06:23:26 PM 28.3333 -81.4667 139° Southeast 109 125 800 -600 Descending Orlando TRACON

Login

Don't have an account? Register now (free) for customized features, flight alerts, and more!